| |
Missouri Department of Transportation

Social Media Facebook Twitter Flickr Blog YouTube RSS

Current AWOS Information

 
AWOS Home - General Info for all Airports
Current AWOS for all Airports - Current METAR for all Airports
Glossary - Disclaimer - Other Links


MARSHALL--MARSHALL MEMORIAL MUNICIPAL--KMHL
 
Recent AWOS History
 
07/22/14     08:22 AM CDT      13:22 GMT
Air Temperature 79°F (26°C ) 1st Cloud Layer Clear
Dew Point 75°F (24°C) 2nd Cloud Layer  
Barometric Pressure 30.05 in Hg. 3rd Cloud Layer  
Wind Speed 7 mph (6 knots) Density Altitude 2100 feet
Peak Wind Gusts   Variable Wind Directions  
Wind Direction Quadrant(200°) Variable Visibility  
Visibility 7 statute miles  

Thunderstorm and Precipitation Identification: 
Thunderstorm Remarks: 

Current METAR Record: METAR KMHL 221330Z AUTO 20007KT 5SM HZ CLR 27/24 A3005 RMK AO2

 

 

 

About Us
How Do I...
Contact Us
Missouri Department of Transportation
Central Office
105 W. Capitol Avenue
Jefferson City, MO 65102
1-888-ASK-MODOT (275-6636)
1-866-831-6277 (Motor Carrier Services)
Drivers License Offices
horz_bar
| | |
Missouri State Government
© 2013 Missouri Department of Transportation. All Rights Reserved.   Privacy Policy.
 
 
 
 
RSS FeedYoutubeBlogFlickrTwitter Facebook